createdAt,value
2023-03-13T00:01:12.822Z,10.78
2023-03-13T00:03:17.312Z,10.75
2023-03-13T00:05:20.468Z,10.77
2023-03-13T00:07:23.579Z,10.74
2023-03-13T00:09:27.606Z,10.74
2023-03-13T00:11:31.100Z,10.74
2023-03-13T00:13:34.475Z,10.75
2023-03-13T00:15:37.655Z,10.74
2023-03-13T00:17:40.820Z,10.73
2023-03-13T00:19:45.501Z,10.72
2023-03-13T00:21:48.755Z,10.72
2023-03-13T00:23:52.221Z,10.72
2023-03-13T00:25:58.934Z,10.73
2023-03-13T00:28:02.046Z,10.71
2023-03-13T00:30:05.677Z,10.72
2023-03-13T00:32:09.082Z,10.72
2023-03-13T00:34:12.280Z,10.71
2023-03-13T00:36:18.223Z,10.72
2023-03-13T00:38:21.212Z,10.75
2023-03-13T00:40:24.217Z,10.77
2023-03-13T00:42:27.387Z,10.79
2023-03-13T00:44:31.858Z,10.80
2023-03-13T00:46:35.058Z,10.84
2023-03-13T00:48:38.347Z,10.84
2023-03-13T00:50:41.417Z,10.87
2023-03-13T00:52:45.812Z,10.85
2023-03-13T00:54:48.824Z,10.89
2023-03-13T00:56:51.937Z,10.90
2023-03-13T00:58:55.092Z,10.92
2023-03-13T01:00:58.168Z,10.91
2023-03-13T01:03:01.293Z,10.91
2023-03-13T01:05:04.613Z,10.91
2023-03-13T01:07:07.681Z,10.92
2023-03-13T01:09:14.443Z,10.95
2023-03-13T01:11:19.769Z,10.97
2023-03-13T01:13:23.022Z,11.00
2023-03-13T01:15:27.312Z,11.00
2023-03-13T01:17:30.648Z,11.01
2023-03-13T01:19:33.756Z,11.03
2023-03-13T01:21:36.981Z,11.04
2023-03-13T01:23:40.032Z,11.04
2023-03-13T01:25:44.567Z,11.04
2023-03-13T01:27:47.747Z,11.04
2023-03-13T01:29:50.872Z,11.05
2023-03-13T01:31:54.118Z,11.07
2023-03-13T01:33:59.048Z,11.08
2023-03-13T01:36:03.073Z,11.07
2023-03-13T01:38:06.537Z,11.07
2023-03-13T01:40:11.185Z,11.09
2023-03-13T01:42:15.597Z,11.09
2023-03-13T01:44:23.494Z,11.10
2023-03-13T01:46:28.782Z,11.11
2023-03-13T01:49:12.422Z,11.10
2023-03-13T01:51:28.814Z,11.14
2023-03-13T01:53:34.544Z,11.13
2023-03-13T01:55:39.161Z,11.13
2023-03-13T01:57:46.367Z,11.15
2023-03-13T01:59:52.899Z,11.14
2023-03-13T02:01:58.751Z,11.15
2023-03-13T02:04:02.263Z,11.16
2023-03-13T02:06:06.475Z,11.15
2023-03-13T02:08:13.308Z,11.14
2023-03-13T02:10:17.990Z,11.15
2023-03-13T02:12:23.833Z,11.10
2023-03-13T02:14:30.206Z,11.07
2023-03-13T02:16:34.187Z,11.04
2023-03-13T02:18:38.776Z,11.02
2023-03-13T02:20:42.792Z,10.97
2023-03-13T02:22:49.779Z,10.93
2023-03-13T02:24:58.903Z,10.88
2023-03-13T02:27:04.218Z,10.86
2023-03-13T02:29:18.130Z,10.86
2023-03-13T02:31:21.859Z,10.80
2023-03-13T02:33:28.018Z,10.77
2023-03-13T02:35:31.957Z,10.76
2023-03-13T02:37:35.751Z,10.76
2023-03-13T02:39:41.339Z,10.77
2023-03-13T02:41:45.148Z,10.76
2023-03-13T02:43:49.757Z,10.77
2023-03-13T02:46:04.916Z,10.78
2023-03-13T02:48:09.768Z,10.74
2023-03-13T02:50:13.991Z,10.74
2023-03-13T02:52:21.408Z,10.75
2023-03-13T02:54:26.545Z,10.73
2023-03-13T02:56:31.694Z,10.72
2023-03-13T02:58:49.216Z,10.71
2023-03-13T03:00:55.716Z,10.69
2023-03-13T03:02:59.032Z,10.70
2023-03-13T03:05:02.047Z,10.70
2023-03-13T03:07:05.322Z,10.70
2023-03-13T03:09:09.283Z,10.69
2023-03-13T03:11:13.939Z,10.71
2023-03-13T03:13:18.682Z,10.72
2023-03-13T03:15:22.682Z,10.72
2023-03-13T03:17:27.339Z,10.71
2023-03-13T03:19:31.539Z,10.70
2023-03-13T03:21:35.800Z,10.69
2023-03-13T03:23:38.869Z,10.70
2023-03-13T03:25:42.192Z,10.71
2023-03-13T03:27:45.404Z,10.73
2023-03-13T03:29:48.500Z,10.76
2023-03-13T03:31:52.332Z,10.77
2023-03-13T03:33:57.812Z,10.82
2023-03-13T03:36:01.499Z,10.82
2023-03-13T03:38:06.161Z,10.84
2023-03-13T03:40:12.115Z,10.86
2023-03-13T03:42:15.569Z,10.85
2023-03-13T03:44:18.660Z,10.85
2023-03-13T03:46:33.336Z,10.85
2023-03-13T03:48:36.651Z,10.86
2023-03-13T03:50:43.444Z,10.85
2023-03-13T03:52:46.788Z,10.81
2023-03-13T03:54:50.042Z,10.80
2023-03-13T03:56:54.084Z,10.79
2023-03-13T03:58:57.275Z,10.79
2023-03-13T04:01:09.805Z,10.76
2023-03-13T04:03:13.460Z,10.76
2023-03-13T04:05:16.598Z,10.79
2023-03-13T04:07:21.542Z,10.79
2023-03-13T04:09:25.722Z,10.76
2023-03-13T04:11:28.795Z,10.74
2023-03-13T04:13:32.489Z,10.72
2023-03-13T04:15:36.068Z,10.74
2023-03-13T04:17:39.343Z,10.74
2023-03-13T04:19:44.319Z,10.74
2023-03-13T04:21:47.968Z,10.75
2023-03-13T04:23:55.654Z,10.76
2023-03-13T04:25:59.147Z,10.79
2023-03-13T04:28:02.253Z,10.80
2023-03-13T04:30:13.806Z,10.81
2023-03-13T04:32:21.754Z,10.84
2023-03-13T04:34:43.432Z,10.86
2023-03-13T04:36:49.409Z,10.90
2023-03-13T04:39:12.202Z,10.97
2023-03-13T04:41:27.412Z,11.04
2023-03-13T04:43:53.580Z,11.14
2023-03-13T04:46:19.636Z,11.22
2023-03-13T04:48:32.595Z,11.29
2023-03-13T04:50:58.774Z,11.35
2023-03-13T04:53:14.702Z,11.38
2023-03-13T04:55:40.106Z,11.39
2023-03-13T04:58:01.312Z,11.44
2023-03-13T05:00:21.996Z,11.45
2023-03-13T05:02:44.950Z,11.50
2023-03-13T05:04:53.814Z,11.52
2023-03-13T05:07:15.292Z,11.54
2023-03-13T05:09:33.229Z,11.56
2023-03-13T05:11:58.249Z,11.62
2023-03-13T05:14:01.581Z,11.69
2023-03-13T05:16:17.188Z,11.70
2023-03-13T05:18:39.271Z,11.73
2023-03-13T05:21:05.618Z,11.75
2023-03-13T05:23:18.602Z,11.76
2023-03-13T05:25:41.987Z,11.77
2023-03-13T05:28:00.164Z,11.79
2023-03-13T05:30:19.644Z,11.78
2023-03-13T05:32:39.111Z,11.79
2023-03-13T05:35:04.413Z,11.83
2023-03-13T05:37:25.917Z,11.83
2023-03-13T05:39:38.502Z,11.84
2023-03-13T05:41:54.840Z,11.81
2023-03-13T05:44:34.444Z,11.87
2023-03-13T05:46:51.044Z,11.90
2023-03-13T05:49:18.374Z,11.91
2023-03-13T05:51:39.811Z,11.91
2023-03-13T05:54:01.402Z,11.94
2023-03-13T05:56:42.701Z,11.96
2023-03-13T05:59:00.373Z,11.96
2023-03-13T06:01:23.526Z,11.96
2023-03-13T06:03:33.478Z,11.96
2023-03-13T06:05:36.794Z,11.94
2023-03-13T06:07:44.058Z,11.92
2023-03-13T06:09:47.130Z,11.93
2023-03-13T06:11:50.336Z,11.88
2023-03-13T06:13:54.925Z,11.92
2023-03-13T06:16:16.720Z,11.94
2023-03-13T06:18:23.538Z,11.95
2023-03-13T06:20:26.645Z,11.95
2023-03-13T06:22:30.829Z,12.00
2023-03-13T06:24:34.121Z,12.02
2023-03-13T06:26:37.228Z,12.01
2023-03-13T06:28:40.365Z,12.03
2023-03-13T06:30:43.885Z,12.07
2023-03-13T06:32:47.107Z,12.12
2023-03-13T06:34:52.336Z,12.16
2023-03-13T06:36:56.448Z,12.20
2023-03-13T06:38:59.762Z,12.23
2023-03-13T06:41:02.987Z,12.28
2023-03-13T06:43:06.144Z,12.29
2023-03-13T06:45:10.512Z,12.30
2023-03-13T06:47:15.488Z,12.34
2023-03-13T06:49:18.695Z,12.36
2023-03-13T06:51:23.438Z,12.39
2023-03-13T06:53:26.665Z,12.40
2023-03-13T06:55:29.704Z,12.42
2023-03-13T06:57:32.727Z,12.41
2023-03-13T06:59:35.847Z,12.47
2023-03-13T07:01:38.824Z,12.50
2023-03-13T07:03:42.459Z,12.54
2023-03-13T07:05:45.586Z,12.55
2023-03-13T07:07:50.013Z,12.56
2023-03-13T07:09:53.060Z,12.57
2023-03-13T07:11:58.227Z,12.62
2023-03-13T07:14:15.183Z,12.67
2023-03-13T07:16:19.804Z,12.71
2023-03-13T07:18:23.847Z,12.73
2023-03-13T07:20:26.913Z,12.69
2023-03-13T07:22:30.063Z,12.72
2023-03-13T07:24:34.591Z,12.70
2023-03-13T07:26:37.713Z,12.72
2023-03-13T07:28:40.785Z,12.72
2023-03-13T07:30:43.855Z,12.72
2023-03-13T07:32:47.072Z,12.74
2023-03-13T07:34:50.246Z,12.73
2023-03-13T07:36:53.234Z,12.73
2023-03-13T07:38:56.562Z,12.75
2023-03-13T07:41:01.204Z,12.74
2023-03-13T07:43:04.333Z,12.77
2023-03-13T07:45:08.860Z,12.75
2023-03-13T07:47:11.977Z,12.77
2023-03-13T07:49:15.275Z,12.77
2023-03-13T07:51:25.267Z,12.81
2023-03-13T07:53:33.659Z,12.84
2023-03-13T07:55:36.882Z,12.92
2023-03-13T07:57:41.293Z,13.00
2023-03-13T07:59:44.381Z,13.04
2023-03-13T08:01:47.600Z,13.05
2023-03-13T08:03:51.101Z,13.07
2023-03-13T08:06:05.074Z,13.07
2023-03-13T08:08:08.838Z,13.10
2023-03-13T08:10:14.856Z,13.13
2023-03-13T08:12:18.049Z,13.18
2023-03-13T08:14:22.516Z,13.19
2023-03-13T08:16:27.062Z,13.23
2023-03-13T08:18:34.646Z,13.24
2023-03-13T08:20:37.673Z,13.28
2023-03-13T08:22:40.788Z,13.29
2023-03-13T08:24:43.750Z,13.32
2023-03-13T08:26:46.799Z,13.37
2023-03-13T08:28:54.179Z,13.49
2023-03-13T08:30:58.760Z,13.60
2023-03-13T08:33:01.924Z,13.69
2023-03-13T08:35:05.399Z,13.81
2023-03-13T08:37:08.612Z,13.92
2023-03-13T08:39:13.970Z,14.03
2023-03-13T08:41:18.684Z,14.15
2023-03-13T08:43:21.770Z,14.22
2023-03-13T08:45:24.831Z,14.29
2023-03-13T08:47:29.408Z,14.35
2023-03-13T08:49:32.527Z,14.49
2023-03-13T08:51:36.011Z,14.60
2023-03-13T08:53:40.499Z,14.72
2023-03-13T08:55:43.653Z,14.78
2023-03-13T08:57:46.723Z,14.84
2023-03-13T08:59:51.440Z,14.81
2023-03-13T09:01:54.528Z,14.68
2023-03-13T09:04:03.663Z,14.65
2023-03-13T09:06:08.182Z,14.66
2023-03-13T09:08:11.226Z,14.67
2023-03-13T09:10:14.576Z,14.69
2023-03-13T09:12:29.910Z,14.72
2023-03-13T09:14:36.331Z,14.70
2023-03-13T09:16:39.737Z,14.71
2023-03-13T09:18:43.092Z,14.72
2023-03-13T09:20:48.991Z,14.71
2023-03-13T09:22:52.137Z,14.69
2023-03-13T09:24:55.121Z,14.60
2023-03-13T09:27:01.301Z,14.61
2023-03-13T09:29:04.909Z,14.66
2023-03-13T09:31:09.013Z,14.65
2023-03-13T09:33:12.222Z,14.64
2023-03-13T09:35:15.658Z,14.67
2023-03-13T09:37:20.182Z,14.71
2023-03-13T09:39:23.268Z,14.70
2023-03-13T09:41:28.931Z,14.73
2023-03-13T09:43:39.071Z,14.72
2023-03-13T09:45:44.608Z,14.73
2023-03-13T09:47:49.876Z,14.70
2023-03-13T09:49:55.314Z,14.71
2023-03-13T09:52:04.292Z,14.72
2023-03-13T09:54:10.749Z,14.71
2023-03-13T09:56:18.126Z,14.73
2023-03-13T09:58:23.455Z,14.72
2023-03-13T10:00:29.121Z,14.78
2023-03-13T10:02:33.876Z,14.84
2023-03-13T10:04:42.000Z,14.93
2023-03-13T10:06:46.084Z,15.07
2023-03-13T10:08:49.366Z,15.20
2023-03-13T10:10:57.567Z,15.30
2023-03-13T10:13:06.171Z,15.39
2023-03-13T10:15:23.762Z,15.56
2023-03-13T10:17:33.204Z,15.69
2023-03-13T10:19:38.852Z,15.79
2023-03-13T10:21:43.351Z,15.91
2023-03-13T10:23:50.392Z,16.03
2023-03-13T10:25:55.098Z,16.18
2023-03-13T10:27:58.509Z,16.41
2023-03-13T10:30:01.508Z,16.51
2023-03-13T10:32:06.917Z,16.57
2023-03-13T10:34:11.308Z,16.56
2023-03-13T10:36:15.254Z,16.52
2023-03-13T10:38:20.313Z,16.55
2023-03-13T10:40:25.331Z,16.72
2023-03-13T10:42:33.579Z,16.90
2023-03-13T10:44:36.684Z,17.04
2023-03-13T10:46:42.375Z,17.10
2023-03-13T10:48:45.528Z,17.15
2023-03-13T10:50:50.596Z,17.26
2023-03-13T10:52:54.750Z,17.25
2023-03-13T10:55:01.254Z,17.40
2023-03-13T10:57:21.048Z,17.32
2023-03-13T10:59:27.260Z,17.29
2023-03-13T11:01:32.500Z,17.25
2023-03-13T11:03:35.729Z,17.33
2023-03-13T11:05:40.156Z,17.39
2023-03-13T11:07:45.406Z,17.47
2023-03-13T11:09:59.182Z,17.62
2023-03-13T11:12:07.005Z,17.85
2023-03-13T11:14:11.130Z,18.03
2023-03-13T11:16:20.303Z,18.13
2023-03-13T11:18:27.486Z,18.40
2023-03-13T11:20:33.355Z,18.60
2023-03-13T11:22:47.194Z,18.66
2023-03-13T11:24:54.631Z,18.79
2023-03-13T11:27:05.068Z,18.88
2023-03-13T11:29:15.448Z,18.71
2023-03-13T11:31:22.987Z,18.76
2023-03-13T11:33:30.793Z,18.91
2023-03-13T11:35:39.951Z,19.08
2023-03-13T11:37:43.978Z,19.19
2023-03-13T11:39:54.295Z,19.23
2023-03-13T11:42:01.669Z,19.20
2023-03-13T11:44:32.256Z,19.22
2023-03-13T11:46:48.005Z,19.23
2023-03-13T11:49:24.388Z,19.15
2023-03-13T11:51:34.183Z,19.15
2023-03-13T11:53:47.881Z,19.20
2023-03-13T11:56:03.041Z,19.28
2023-03-13T11:58:21.218Z,19.23
2023-03-13T12:00:31.384Z,19.22
2023-03-13T12:02:38.877Z,19.31
2023-03-13T12:04:45.174Z,19.42
2023-03-13T12:06:51.980Z,19.43
2023-03-13T12:08:58.407Z,19.43
2023-03-13T12:11:07.848Z,19.42
2023-03-13T12:13:15.226Z,19.44
2023-03-13T12:15:23.222Z,19.50
2023-03-13T12:17:33.364Z,19.53
2023-03-13T12:19:42.679Z,19.64
2023-03-13T12:21:49.049Z,19.78
2023-03-13T12:23:59.573Z,19.53
2023-03-13T12:26:06.183Z,19.62
2023-03-13T12:28:24.116Z,19.66
2023-03-13T12:30:34.765Z,19.55
2023-03-13T12:32:39.872Z,19.51
2023-03-13T12:34:53.008Z,19.63
2023-03-13T12:37:01.149Z,19.71
2023-03-13T12:39:12.771Z,19.79
2023-03-13T12:41:20.738Z,19.89
2023-03-13T12:43:27.007Z,20.01
2023-03-13T12:45:30.531Z,20.06
2023-03-13T12:47:34.946Z,20.03
2023-03-13T12:49:57.315Z,20.00
2023-03-13T12:52:11.105Z,20.00
2023-03-13T12:54:34.258Z,19.96
2023-03-13T12:56:51.781Z,20.01
2023-03-13T12:58:56.765Z,20.09
2023-03-13T13:01:04.097Z,20.19
2023-03-13T13:03:20.107Z,20.26
2023-03-13T13:05:24.709Z,20.23
2023-03-13T13:07:29.650Z,20.17
2023-03-13T13:09:36.146Z,20.16
2023-03-13T13:11:49.588Z,20.20
2023-03-13T13:13:52.724Z,20.20
2023-03-13T13:16:01.334Z,20.22
2023-03-13T13:18:15.049Z,20.22
2023-03-13T13:20:47.413Z,20.27
2023-03-13T13:22:52.736Z,20.25
2023-03-13T13:24:57.379Z,20.26
2023-03-13T13:27:00.434Z,20.29
2023-03-13T13:29:41.900Z,20.34
2023-03-13T13:31:57.131Z,20.43
2023-03-13T13:34:00.372Z,20.42
2023-03-13T13:36:32.447Z,20.44
2023-03-13T13:38:40.354Z,20.40
2023-03-13T13:40:59.499Z,20.43
2023-03-13T13:43:03.266Z,20.48
2023-03-13T13:45:25.424Z,20.54
2023-03-13T13:47:32.423Z,20.59
2023-03-13T13:49:39.545Z,20.65
2023-03-13T13:51:44.376Z,20.62
2023-03-13T13:53:48.502Z,20.64
2023-03-13T13:55:51.837Z,20.62
2023-03-13T13:58:00.815Z,20.71
2023-03-13T14:00:19.636Z,20.78
2023-03-13T14:02:25.624Z,20.78
2023-03-13T14:04:30.758Z,20.79
2023-03-13T14:06:37.189Z,20.75
2023-03-13T14:08:44.998Z,20.63
2023-03-13T14:10:51.063Z,20.54
2023-03-13T14:12:55.461Z,20.53
2023-03-13T14:15:15.567Z,20.48
2023-03-13T14:17:18.724Z,20.44
2023-03-13T14:19:24.217Z,20.43
2023-03-13T14:21:27.933Z,20.39
2023-03-13T14:23:40.090Z,20.34
2023-03-13T14:25:46.677Z,20.31
2023-03-13T14:27:51.101Z,20.26
2023-03-13T14:30:03.706Z,20.21
2023-03-13T14:32:07.221Z,20.16
2023-03-13T14:34:12.768Z,20.16
2023-03-13T14:36:15.857Z,20.23
2023-03-13T14:38:21.189Z,20.32
2023-03-13T14:40:29.224Z,20.35
2023-03-13T14:42:39.962Z,20.39
2023-03-13T14:44:45.790Z,20.45
2023-03-13T14:46:49.023Z,20.55
2023-03-13T14:48:55.653Z,20.61
2023-03-13T14:51:14.812Z,20.65
2023-03-13T14:53:20.847Z,20.68
2023-03-13T14:55:33.726Z,20.68
2023-03-13T14:57:38.280Z,20.71
2023-03-13T14:59:43.113Z,20.72
2023-03-13T15:01:47.150Z,20.72
2023-03-13T15:03:50.381Z,20.71
2023-03-13T15:06:07.403Z,20.69
2023-03-13T15:08:15.138Z,20.72
2023-03-13T15:10:22.270Z,20.68
2023-03-13T15:12:25.572Z,20.67
2023-03-13T15:14:38.869Z,20.66
2023-03-13T15:16:42.136Z,20.61
2023-03-13T15:18:45.384Z,20.61
2023-03-13T15:20:52.111Z,20.63
2023-03-13T15:22:55.170Z,20.64
2023-03-13T15:25:07.517Z,20.60
2023-03-13T15:27:19.105Z,20.59
2023-03-13T15:29:22.345Z,20.57
2023-03-13T15:31:29.431Z,20.57
2023-03-13T15:33:32.722Z,20.58
2023-03-13T15:35:35.903Z,20.60
2023-03-13T15:37:39.090Z,20.61
2023-03-13T15:39:42.198Z,20.60
2023-03-13T15:41:45.222Z,20.59
2023-03-13T15:43:52.441Z,20.61
2023-03-13T15:45:55.699Z,20.58
2023-03-13T15:48:00.263Z,20.60
2023-03-13T15:50:03.542Z,20.61
2023-03-13T15:52:17.558Z,20.63
2023-03-13T15:54:20.960Z,20.60
2023-03-13T15:56:24.749Z,20.58
2023-03-13T15:58:28.712Z,20.55
2023-03-13T16:00:31.843Z,20.50
2023-03-13T16:02:34.954Z,20.48
2023-03-13T16:04:40.007Z,20.42
2023-03-13T16:06:43.152Z,20.36
2023-03-13T16:08:46.300Z,20.33
2023-03-13T16:10:49.975Z,20.30
2023-03-13T16:12:53.128Z,20.29
2023-03-13T16:14:56.336Z,20.30
2023-03-13T16:16:59.642Z,20.30
2023-03-13T16:19:04.295Z,20.28
2023-03-13T16:21:10.491Z,20.28
2023-03-13T16:23:13.512Z,20.25
2023-03-13T16:25:16.738Z,20.23
2023-03-13T16:27:21.033Z,20.20
2023-03-13T16:29:24.248Z,20.16
2023-03-13T16:31:28.715Z,20.11
2023-03-13T16:33:31.903Z,20.08
2023-03-13T16:35:35.595Z,20.06
2023-03-13T16:37:40.384Z,20.02
2023-03-13T16:39:44.062Z,19.99
2023-03-13T16:41:47.128Z,19.96
2023-03-13T16:43:50.650Z,19.91
2023-03-13T16:45:53.969Z,19.88
2023-03-13T16:47:57.097Z,19.84
2023-03-13T16:50:00.129Z,19.76
2023-03-13T16:52:03.307Z,19.71
2023-03-13T16:54:08.427Z,19.63
2023-03-13T16:56:20.580Z,19.55
2023-03-13T16:58:23.721Z,19.52
2023-03-13T17:00:28.920Z,19.53
2023-03-13T17:02:32.071Z,19.53
2023-03-13T17:04:35.285Z,19.50
2023-03-13T17:06:41.399Z,19.49
2023-03-13T17:08:44.521Z,19.48
2023-03-13T17:10:49.046Z,19.44
2023-03-13T17:12:52.282Z,19.43
2023-03-13T17:14:55.371Z,19.42
2023-03-13T17:16:58.485Z,19.41
2023-03-13T17:19:02.492Z,19.42
2023-03-13T17:21:06.284Z,19.38
2023-03-13T17:23:10.949Z,19.36
2023-03-13T17:25:14.177Z,19.30
2023-03-13T17:27:19.328Z,19.26
2023-03-13T17:29:23.804Z,19.20
2023-03-13T17:31:28.677Z,19.18
2023-03-13T17:33:31.933Z,19.15
2023-03-13T17:35:34.989Z,19.12
2023-03-13T17:37:38.082Z,19.08
2023-03-13T17:39:41.408Z,19.03
2023-03-13T17:41:44.520Z,18.98
2023-03-13T17:43:49.136Z,18.93
2023-03-13T17:45:54.509Z,18.90
2023-03-13T17:47:58.258Z,18.88
2023-03-13T17:50:01.466Z,18.84
2023-03-13T17:52:04.781Z,18.79
2023-03-13T17:54:08.368Z,18.75
2023-03-13T17:56:16.757Z,18.72
2023-03-13T17:58:19.874Z,18.68
2023-03-13T18:00:30.232Z,18.65
2023-03-13T18:02:33.440Z,18.62
2023-03-13T18:04:36.552Z,18.58
2023-03-13T18:06:42.425Z,18.56
2023-03-13T18:08:45.654Z,18.56
2023-03-13T18:10:48.715Z,18.53
2023-03-13T18:12:52.486Z,18.51
2023-03-13T18:14:55.496Z,18.48
2023-03-13T18:17:01.168Z,18.48
2023-03-13T18:19:04.734Z,18.44
2023-03-13T18:21:07.967Z,18.43
2023-03-13T18:23:11.093Z,18.41
2023-03-13T18:25:14.568Z,18.44
2023-03-13T18:27:18.984Z,18.45
2023-03-13T18:29:26.505Z,18.35
2023-03-13T18:31:30.588Z,18.31
2023-03-13T18:33:35.212Z,18.28
2023-03-13T18:35:38.345Z,18.22
2023-03-13T18:37:42.743Z,18.14
2023-03-13T18:39:45.945Z,18.05
2023-03-13T18:41:50.219Z,17.96
2023-03-13T18:43:53.567Z,17.82
2023-03-13T18:45:56.833Z,17.59
2023-03-13T18:47:59.984Z,17.36
2023-03-13T18:50:04.481Z,17.15
2023-03-13T18:52:08.042Z,16.55
2023-03-13T18:54:11.478Z,16.15
2023-03-13T18:56:19.938Z,15.95
2023-03-13T18:58:23.037Z,15.73
2023-03-13T19:00:27.903Z,15.55
2023-03-13T19:02:31.328Z,15.45
2023-03-13T19:04:34.612Z,15.25
2023-03-13T19:06:39.066Z,15.05
2023-03-13T19:08:42.189Z,14.97
2023-03-13T19:10:45.331Z,14.91
2023-03-13T19:12:48.689Z,14.87
2023-03-13T19:14:51.797Z,14.87
2023-03-13T19:16:56.452Z,14.89
2023-03-13T19:18:59.650Z,14.88
2023-03-13T19:21:02.707Z,14.70
2023-03-13T19:23:07.141Z,14.59
2023-03-13T19:25:11.444Z,14.54
2023-03-13T19:27:17.065Z,14.51
2023-03-13T19:29:22.469Z,14.46
2023-03-13T19:31:25.946Z,14.44
2023-03-13T19:33:29.269Z,14.43
2023-03-13T19:35:32.382Z,14.48
2023-03-13T19:37:35.678Z,14.48
2023-03-13T19:39:40.363Z,14.44
2023-03-13T19:41:43.666Z,14.46
2023-03-13T19:43:47.902Z,14.50
2023-03-13T19:45:51.438Z,14.49
2023-03-13T19:47:54.612Z,14.42
2023-03-13T19:49:59.008Z,14.40
2023-03-13T19:52:02.331Z,14.43
2023-03-13T19:54:05.867Z,14.46
2023-03-13T19:56:16.756Z,14.47
2023-03-13T19:58:19.851Z,14.50
2023-03-13T20:00:24.694Z,14.53
2023-03-13T20:02:27.949Z,14.57
2023-03-13T20:04:32.225Z,14.58
2023-03-13T20:06:35.975Z,14.56
2023-03-13T20:08:39.185Z,14.58
2023-03-13T20:10:42.315Z,14.56
2023-03-13T20:12:46.821Z,14.50
2023-03-13T20:14:49.839Z,14.53
2023-03-13T20:16:52.923Z,14.55
2023-03-13T20:18:56.398Z,14.55
2023-03-13T20:20:59.658Z,14.51
2023-03-13T20:23:02.775Z,14.46
2023-03-13T20:25:06.476Z,14.40
2023-03-13T20:27:09.639Z,14.34
2023-03-13T20:29:14.176Z,14.24
2023-03-13T20:31:18.424Z,14.13
2023-03-13T20:33:21.829Z,14.00
2023-03-13T20:35:25.130Z,13.73
2023-03-13T20:37:28.336Z,13.54
2023-03-13T20:39:31.890Z,13.27
2023-03-13T20:41:35.256Z,13.11
2023-03-13T20:43:39.501Z,12.94
2023-03-13T20:45:44.197Z,12.79
2023-03-13T20:47:47.417Z,12.78
2023-03-13T20:49:50.573Z,12.64
2023-03-13T20:51:53.799Z,12.59
2023-03-13T20:53:57.060Z,12.60
2023-03-13T20:56:00.182Z,12.58
2023-03-13T20:58:03.158Z,12.55
2023-03-13T21:00:07.547Z,12.56
2023-03-13T21:02:12.117Z,12.57
2023-03-13T21:04:15.297Z,12.62
2023-03-13T21:06:19.569Z,12.66
2023-03-13T21:08:22.757Z,12.69
2023-03-13T21:10:25.846Z,12.71
2023-03-13T21:12:29.167Z,12.74
2023-03-13T21:14:33.437Z,12.72
2023-03-13T21:16:36.599Z,12.70
2023-03-13T21:18:41.255Z,12.66
2023-03-13T21:20:44.370Z,12.56
2023-03-13T21:22:47.568Z,12.58
2023-03-13T21:24:50.935Z,12.54
2023-03-13T21:26:55.200Z,12.47
2023-03-13T21:28:58.848Z,12.47
2023-03-13T21:31:09.353Z,12.46
2023-03-13T21:33:12.805Z,12.48
2023-03-13T21:35:17.923Z,12.49
2023-03-13T21:37:21.066Z,12.46
2023-03-13T21:39:24.310Z,12.39
2023-03-13T21:41:27.625Z,12.35
2023-03-13T21:43:30.965Z,12.35
2023-03-13T21:45:34.838Z,12.32
2023-03-13T21:47:37.989Z,12.27
2023-03-13T21:49:41.192Z,12.25
2023-03-13T21:51:45.973Z,12.23
2023-03-13T21:53:49.219Z,12.19
2023-03-13T21:55:52.990Z,12.18
2023-03-13T21:57:56.295Z,12.16
2023-03-13T21:59:59.830Z,12.02
2023-03-13T22:02:03.065Z,11.92
2023-03-13T22:04:06.335Z,11.88
2023-03-13T22:06:13.482Z,11.86
2023-03-13T22:08:19.469Z,11.80
2023-03-13T22:10:22.697Z,11.76
2023-03-13T22:12:25.999Z,11.72
2023-03-13T22:14:29.065Z,11.64
2023-03-13T22:16:32.195Z,11.63
2023-03-13T22:18:35.372Z,11.68
2023-03-13T22:20:38.886Z,11.63
2023-03-13T22:22:43.154Z,11.64
2023-03-13T22:24:47.630Z,11.60
2023-03-13T22:26:50.689Z,11.61
2023-03-13T22:28:53.813Z,11.64
2023-03-13T22:30:56.940Z,11.63
2023-03-13T22:33:00.110Z,11.67
2023-03-13T22:35:03.322Z,11.71
2023-03-13T22:37:06.456Z,11.71
2023-03-13T22:39:09.670Z,11.73
2023-03-13T22:41:15.342Z,11.73
2023-03-13T22:43:18.389Z,11.74
2023-03-13T22:45:22.410Z,11.73
2023-03-13T22:47:25.932Z,11.70
2023-03-13T22:49:29.263Z,11.68
2023-03-13T22:51:32.389Z,11.67
2023-03-13T22:53:36.198Z,11.64
2023-03-13T22:55:39.310Z,11.65
2023-03-13T22:57:43.745Z,11.65
2023-03-13T22:59:46.856Z,11.65
2023-03-13T23:01:49.954Z,11.71
2023-03-13T23:03:53.185Z,11.71
2023-03-13T23:05:56.356Z,11.73
2023-03-13T23:07:59.335Z,11.70
2023-03-13T23:10:02.452Z,11.70
2023-03-13T23:12:05.809Z,11.69
2023-03-13T23:14:10.275Z,11.69
2023-03-13T23:16:14.801Z,11.69
2023-03-13T23:18:17.859Z,11.64
2023-03-13T23:20:21.230Z,11.69
2023-03-13T23:22:28.965Z,11.71
2023-03-13T23:24:32.006Z,11.72
2023-03-13T23:26:35.114Z,11.71
2023-03-13T23:28:39.170Z,11.71
2023-03-13T23:30:43.625Z,11.67
2023-03-13T23:32:48.318Z,11.66
2023-03-13T23:34:51.367Z,11.69
2023-03-13T23:36:54.466Z,11.72
2023-03-13T23:38:58.319Z,11.67
2023-03-13T23:41:06.214Z,11.63
2023-03-13T23:43:09.251Z,11.62
2023-03-13T23:45:12.586Z,11.58
2023-03-13T23:47:16.996Z,11.60
2023-03-13T23:49:20.070Z,11.57
2023-03-13T23:51:23.846Z,11.60
2023-03-13T23:53:26.911Z,11.56
2023-03-13T23:55:30.151Z,11.51
2023-03-13T23:57:33.225Z,11.56
2023-03-13T23:59:36.286Z,11.60
